Time;durP1;ratioP1;P1;durP2;ratioP2;P2;SDS_P1;SDS_P2;PMS_P1;PMS_P2;Temp;Humidity;BMP_temperature;BMP_pressure;BME280_temperature;BME280_humidity;BME280_pressure;Samples;Min_cycle;Max_cycle;Signal;HPM_P1;HPM_P2
2023/11/06 00:00:42;;;;;;;2.30;0.67;;;7.10;99.90;;;;;;2093141;28;20235;-73
2023/11/06 00:01:44;;;;;;;1.80;0.70;;;7.10;99.90;;;;;;2089769;28;20713;-76
2023/11/06 00:02:45;;;;;;;1.17;0.60;;;7.10;99.90;;;;;;2089844;28;20236;-74
2023/11/06 00:03:45;;;;;;;3.30;0.50;;;7.10;99.90;;;;;;2091697;28;20243;-74
2023/11/06 00:04:46;;;;;;;4.27;0.80;;;7.10;99.90;;;;;;2092018;28;20727;-75
2023/11/06 00:05:47;;;;;;;1.03;0.70;;;7.10;99.90;;;;;;2091483;28;20701;-74
2023/11/06 00:06:47;;;;;;;1.60;0.73;;;7.10;99.90;;;;;;2095522;28;20235;-74
2023/11/06 00:07:48;;;;;;;1.40;0.63;;;7.10;99.90;;;;;;2095579;28;20267;-74
2023/11/06 00:08:48;;;;;;;0.90;0.60;;;7.10;99.90;;;;;;2097137;28;20227;-73
2023/11/06 00:09:50;;;;;;;1.17;0.70;;;7.10;99.90;;;;;;2092312;28;20231;-74
2023/11/06 00:10:52;;;;;;;1.35;0.60;;;7.10;99.90;;;;;;2092002;28;20234;-74
2023/11/06 00:11:53;;;;;;;1.17;0.50;;;7.00;99.90;;;;;;2092244;28;20219;-74
2023/11/06 00:12:54;;;;;;;1.87;0.80;;;7.10;99.90;;;;;;2091730;28;20247;-74
2023/11/06 00:13:54;;;;;;;1.97;0.80;;;7.10;99.90;;;;;;2091639;28;20230;-74
2023/11/06 00:14:55;;;;;;;0.97;0.50;;;7.00;99.90;;;;;;2091724;28;20223;-74
2023/11/06 00:15:55;;;;;;;3.00;0.53;;;7.00;99.90;;;;;;2091895;28;20223;-74
2023/11/06 00:16:56;;;;;;;1.23;0.50;;;7.00;99.90;;;;;;2090886;28;20310;-74
2023/11/06 00:17:56;;;;;;;0.90;0.60;;;7.00;99.90;;;;;;2081597;28;20277;-74
2023/11/06 00:18:57;;;;;;;0.60;0.50;;;6.90;99.90;;;;;;2081179;28;20238;-73
2023/11/06 00:19:58;;;;;;;1.77;0.90;;;6.80;99.90;;;;;;2089285;28;20755;-74
2023/11/06 00:20:59;;;;;;;0.93;0.60;;;6.80;99.90;;;;;;2089375;28;20230;-74
2023/11/06 00:22:00;;;;;;;3.13;0.60;;;6.70;99.90;;;;;;2091349;28;20237;-74
2023/11/06 00:23:00;;;;;;;0.40;0.40;;;6.70;99.90;;;;;;2092501;28;20703;-74
2023/11/06 00:24:01;;;;;;;1.43;0.60;;;6.60;99.90;;;;;;2095412;28;20288;-75
2023/11/06 00:25:03;;;;;;;1.27;0.50;;;6.60;99.90;;;;;;2086903;28;20270;-74
2023/11/06 00:26:04;;;;;;;0.75;0.60;;;6.60;99.90;;;;;;2095209;28;20195;-74
2023/11/06 00:27:05;;;;;;;1.07;0.40;;;6.50;99.90;;;;;;2095128;28;20206;-74
2023/11/06 00:28:05;;;;;;;2.10;0.70;;;6.50;99.90;;;;;;2095486;28;20405;-75
2023/11/06 00:29:07;;;;;;;3.03;0.60;;;6.50;99.90;;;;;;2092196;28;20194;-74
2023/11/06 00:30:08;;;;;;;1.33;0.57;;;6.60;99.90;;;;;;2095665;28;20657;-74
2023/11/06 00:31:09;;;;;;;0.50;0.40;;;6.50;99.90;;;;;;2090772;28;20218;-74
2023/11/06 00:32:09;;;;;;;0.55;0.40;;;6.50;99.90;;;;;;2090228;28;20183;-74
2023/11/06 00:33:10;;;;;;;1.93;0.50;;;6.50;99.90;;;;;;2086828;28;20188;-74
2023/11/06 00:34:11;;;;;;;0.97;0.50;;;6.50;99.90;;;;;;2090884;28;20186;-74
2023/11/06 00:35:13;;;;;;;1.17;0.70;;;6.50;99.90;;;;;;2090786;28;20175;-74
2023/11/06 00:36:25;;;;;;;0.90;0.50;;;6.50;99.90;;;;;;2090165;28;20215;-74
2023/11/06 00:37:25;;;;;;;0.65;0.47;;;6.60;99.90;;;;;;2097824;28;20242;-74
2023/11/06 00:38:26;;;;;;;0.30;0.30;;;6.50;99.90;;;;;;2091767;28;20228;-74
2023/11/06 00:39:28;;;;;;;0.43;0.33;;;6.40;99.90;;;;;;2090012;28;20302;-74
2023/11/06 00:40:29;;;;;;;1.25;0.80;;;6.40;99.90;;;;;;2079537;28;20228;-76
2023/11/06 00:41:29;;;;;;;0.50;0.50;;;6.30;99.90;;;;;;2089774;28;20277;-74
2023/11/06 00:42:30;;;;;;;0.70;0.60;;;6.40;99.90;;;;;;2092054;28;20650;-75
2023/11/06 00:43:32;;;;;;;0.88;0.50;;;6.30;99.90;;;;;;2091953;28;20717;-75
2023/11/06 00:44:32;;;;;;;2.00;0.50;;;6.30;99.90;;;;;;2092090;28;20307;-74
2023/11/06 00:45:33;;;;;;;1.37;0.50;;;6.30;99.90;;;;;;2093203;28;20224;-74
2023/11/06 00:46:34;;;;;;;1.47;0.40;;;6.30;99.90;;;;;;2093555;28;20683;-75
2023/11/06 00:47:35;;;;;;;2.47;0.60;;;6.30;99.90;;;;;;2100509;28;20693;-74
2023/11/06 00:48:35;;;;;;;1.23;0.53;;;6.30;99.90;;;;;;2092787;28;20238;-75
2023/11/06 00:49:36;;;;;;;1.70;0.80;;;6.30;99.90;;;;;;2094863;28;20268;-74
2023/11/06 00:50:37;;;;;;;0.43;0.40;;;6.30;99.90;;;;;;2093381;28;20228;-74
2023/11/06 00:51:38;;;;;;;1.90;0.57;;;6.40;99.90;;;;;;2092210;28;20322;-74
2023/11/06 00:52:38;;;;;;;2.40;0.60;;;6.40;99.90;;;;;;2091867;28;20224;-74
2023/11/06 00:53:39;;;;;;;1.10;0.60;;;6.40;99.90;;;;;;2092109;28;20484;-74
2023/11/06 00:54:40;;;;;;;1.60;1.37;;;6.40;99.90;;;;;;2091924;28;20232;-74
2023/11/06 00:55:41;;;;;;;1.50;0.93;;;6.40;99.90;;;;;;2090861;28;20228;-74
2023/11/06 00:56:43;;;;;;;1.52;0.60;;;6.40;99.90;;;;;;2090378;28;20331;-74
2023/11/06 00:57:46;;;;;;;1.67;0.50;;;6.50;99.90;;;;;;2092400;28;20309;-75
2023/11/06 00:58:46;;;;;;;2.60;0.75;;;6.50;99.90;;;;;;2095995;28;20243;-75
2023/11/06 00:59:47;;;;;;;5.63;0.73;;;6.60;99.90;;;;;;2093281;28;20238;-74
2023/11/06 01:00:47;;;;;;;2.33;0.50;;;6.60;99.90;;;;;;2096827;28;20266;-74
2023/11/06 01:01:48;;;;;;;1.63;0.73;;;6.60;99.90;;;;;;2096949;28;20266;-75
2023/11/06 01:02:49;;;;;;;2.73;0.97;;;6.60;99.90;;;;;;2091782;28;20275;-74
2023/11/06 01:03:49;;;;;;;3.77;0.60;;;6.50;99.90;;;;;;2093033;28;20781;-75
2023/11/06 01:04:50;;;;;;;3.67;1.60;;;6.50;99.90;;;;;;2096322;28;20712;-75
2023/11/06 01:05:51;;;;;;;4.13;0.80;;;6.50;99.90;;;;;;2099114;28;20604;-74
2023/11/06 01:06:52;;;;;;;3.63;0.70;;;6.50;99.90;;;;;;2094564;28;20271;-74
2023/11/06 01:07:55;;;;;;;1.50;0.60;;;6.50;99.90;;;;;;2078599;28;20230;-75
2023/11/06 01:08:56;;;;;;;1.20;0.70;;;6.60;99.90;;;;;;2085967;28;20228;-74
2023/11/06 01:09:57;;;;;;;3.53;0.80;;;6.70;99.90;;;;;;2093063;28;20321;-74
2023/11/06 01:10:58;;;;;;;3.00;0.77;;;6.70;99.90;;;;;;2094635;28;20558;-74
2023/11/06 01:11:58;;;;;;;2.57;1.03;;;6.60;99.90;;;;;;2096481;28;20647;-74
2023/11/06 01:13:00;;;;;;;5.00;0.90;;;6.70;99.90;;;;;;2095866;28;20322;-74
2023/11/06 01:14:00;;;;;;;3.08;0.82;;;6.70;99.90;;;;;;2087819;28;20681;-76
2023/11/06 01:15:01;;;;;;;5.57;0.67;;;6.70;99.90;;;;;;2094093;28;20184;-74
2023/11/06 01:16:02;;;;;;;2.13;0.70;;;6.60;99.90;;;;;;2099361;28;20187;-75
2023/11/06 01:17:02;;;;;;;4.67;1.03;;;6.70;99.90;;;;;;2096463;28;20190;-75
2023/11/06 01:18:03;;;;;;;2.23;0.63;;;6.80;99.90;;;;;;2094110;28;20176;-74
2023/11/06 01:19:04;;;;;;;1.83;0.73;;;6.80;99.90;;;;;;2089163;28;20219;-75
2023/11/06 01:20:05;;;;;;;3.10;0.80;;;6.80;99.90;;;;;;2095708;28;20188;-75
2023/11/06 01:21:06;;;;;;;4.78;1.10;;;6.80;99.90;;;;;;2092260;28;20187;-75
2023/11/06 01:22:06;;;;;;;3.60;1.00;;;6.70;99.90;;;;;;2100436;28;20183;-75
2023/11/06 01:23:07;;;;;;;3.43;0.70;;;6.80;99.90;;;;;;2091990;28;20189;-74
2023/11/06 01:24:08;;;;;;;1.80;0.90;;;6.80;99.90;;;;;;2092295;28;20199;-74
2023/11/06 01:25:09;;;;;;;2.13;0.87;;;6.80;99.90;;;;;;2099886;28;20171;-74
2023/11/06 01:26:10;;;;;;;2.63;0.70;;;6.80;99.90;;;;;;2092064;28;20602;-74
2023/11/06 01:27:10;;;;;;;2.83;0.70;;;6.80;99.90;;;;;;2093279;28;20188;-74
2023/11/06 01:28:11;;;;;;;2.63;0.90;;;6.80;99.90;;;;;;2093325;28;20565;-75
2023/11/06 01:29:12;;;;;;;2.87;0.90;;;6.80;99.90;;;;;;2092614;28;20216;-74
2023/11/06 01:30:12;;;;;;;2.50;0.70;;;6.80;99.90;;;;;;2091215;28;20180;-74
2023/11/06 01:31:13;;;;;;;3.83;0.60;;;6.80;99.90;;;;;;2096393;28;20190;-75
2023/11/06 01:32:13;;;;;;;4.53;0.97;;;6.80;99.90;;;;;;2095639;28;20648;-74
2023/11/06 01:33:15;;;;;;;4.17;0.93;;;6.80;99.90;;;;;;2095104;28;20228;-75
2023/11/06 01:34:16;;;;;;;3.28;1.10;;;6.80;99.90;;;;;;2093669;28;20654;-75
2023/11/06 01:35:19;;;;;;;2.30;1.23;;;6.90;99.90;;;;;;2092811;28;20195;-75
2023/11/06 01:36:20;;;;;;;5.57;0.88;;;6.80;99.90;;;;;;2093384;28;20235;-75
2023/11/06 01:37:20;;;;;;;2.90;0.77;;;6.90;99.90;;;;;;2092861;28;20307;-74
2023/11/06 01:38:21;;;;;;;4.10;0.80;;;6.80;99.90;;;;;;2092511;28;20280;-74
2023/11/06 01:39:22;;;;;;;5.87;0.83;;;6.90;99.90;;;;;;2091254;28;20728;-74
2023/11/06 01:40:23;;;;;;;2.17;0.88;;;6.80;99.90;;;;;;2091300;28;20231;-74
2023/11/06 01:41:23;;;;;;;7.03;1.27;;;6.90;99.90;;;;;;2089754;28;20845;-75
2023/11/06 01:42:24;;;;;;;5.70;1.10;;;6.90;99.90;;;;;;2081923;28;20232;-75
2023/11/06 01:43:25;;;;;;;3.30;0.97;;;6.90;99.90;;;;;;2083673;28;21435;-74
2023/11/06 01:44:26;;;;;;;3.40;0.88;;;7.00;99.90;;;;;;2095060;28;20230;-75
2023/11/06 01:45:26;;;;;;;4.83;1.03;;;7.00;99.90;;;;;;2100019;28;20228;-74
2023/11/06 01:46:27;;;;;;;5.63;0.97;;;7.00;99.90;;;;;;2092918;28;20232;-74
2023/11/06 01:47:29;;;;;;;2.00;0.90;;;7.00;99.90;;;;;;2092947;28;20230;-74
2023/11/06 01:48:30;;;;;;;4.00;0.95;;;7.10;99.90;;;;;;2090983;28;20802;-75
2023/11/06 01:49:31;;;;;;;2.47;1.20;;;7.10;99.90;;;;;;2093279;28;20228;-74
2023/11/06 01:50:34;;;;;;;3.87;0.80;;;7.10;99.90;;;;;;2092397;28;20227;-74
2023/11/06 01:51:37;;;;;;;5.22;0.85;;;7.10;99.90;;;;;;2093114;28;20770;-74
2023/11/06 01:52:39;;;;;;;2.60;0.90;;;7.00;99.90;;;;;;2092971;28;20287;-74
2023/11/06 01:53:42;;;;;;;2.72;0.90;;;7.10;99.90;;;;;;2095352;28;20223;-74
2023/11/06 01:54:42;;;;;;;3.13;1.02;;;7.00;99.90;;;;;;2092084;28;20222;-75
2023/11/06 01:55:45;;;;;;;2.47;0.90;;;7.00;99.90;;;;;;2093822;28;20234;-74
2023/11/06 01:56:46;;;;;;;3.50;1.00;;;6.90;99.90;;;;;;2097966;28;20297;-73
2023/11/06 01:57:47;;;;;;;8.10;1.23;;;6.90;99.90;;;;;;2092714;28;20232;-73
2023/11/06 01:58:47;;;;;;;4.37;0.90;;;6.80;99.90;;;;;;2092349;28;20270;-74
2023/11/06 01:59:50;;;;;;;4.23;0.87;;;6.80;99.90;;;;;;2092740;28;20235;-74
2023/11/06 02:00:52;;;;;;;6.82;1.20;;;6.90;99.90;;;;;;2095329;28;20231;-74
2023/11/06 02:01:58;;;;;;;7.07;1.10;;;6.80;99.90;;;;;;2087520;28;20232;-73
2023/11/06 02:03:00;;;;;;;1.83;0.70;;;6.80;99.90;;;;;;2087320;28;20313;-74
2023/11/06 02:04:01;;;;;;;3.65;0.88;;;6.90;99.90;;;;;;2094806;28;20284;-74
2023/11/06 02:05:02;;;;;;;4.43;0.90;;;6.90;99.90;;;;;;2095559;28;20195;-74
2023/11/06 02:06:04;;;;;;;3.05;1.52;;;7.00;99.90;;;;;;2089870;28;20636;-74
2023/11/06 02:07:07;;;;;;;4.60;1.10;;;7.00;99.90;;;;;;2093885;28;20202;-74
2023/11/06 02:08:08;;;;;;;2.83;0.80;;;6.90;99.90;;;;;;2093807;28;20226;-74
2023/11/06 02:09:09;;;;;;;6.87;1.10;;;7.00;99.90;;;;;;2092023;28;20226;-74
2023/11/06 02:10:10;;;;;;;3.72;0.90;;;6.90;99.90;;;;;;2090564;28;20309;-74
2023/11/06 02:11:11;;;;;;;2.07;0.90;;;7.00;99.90;;;;;;2094158;28;20191;-74
2023/11/06 02:12:11;;;;;;;2.67;0.83;;;6.80;99.90;;;;;;2095928;28;20260;-74
2023/11/06 02:13:12;;;;;;;4.87;1.30;;;6.90;99.90;;;;;;2092087;28;20708;-73
2023/11/06 02:14:13;;;;;;;4.63;0.90;;;6.90;99.90;;;;;;2089750;28;20196;-74
2023/11/06 02:15:14;;;;;;;6.33;0.90;;;6.80;99.90;;;;;;2092036;28;20225;-73
2023/11/06 02:16:14;;;;;;;3.47;0.93;;;6.90;99.90;;;;;;2082802;28;20296;-74
2023/11/06 02:17:15;;;;;;;2.33;0.73;;;7.00;99.90;;;;;;2092760;28;20709;-74
2023/11/06 02:18:16;;;;;;;1.87;0.87;;;7.00;99.90;;;;;;2101506;28;20209;-73
2023/11/06 02:19:16;;;;;;;2.90;0.70;;;7.00;99.90;;;;;;2090800;28;20199;-74
2023/11/06 02:20:17;;;;;;;2.17;0.83;;;7.00;99.90;;;;;;2085081;28;20208;-74
2023/11/06 02:21:19;;;;;;;4.20;1.03;;;7.00;99.90;;;;;;2083380;28;20271;-74
2023/11/06 02:22:22;;;;;;;1.60;0.75;;;7.00;99.90;;;;;;2083312;28;20246;-74
2023/11/06 02:23:24;;;;;;;2.13;0.63;;;7.00;99.90;;;;;;2090885;28;20234;-73
2023/11/06 02:24:25;;;;;;;5.57;1.10;;;7.00;99.90;;;;;;2086792;28;20216;-74
2023/11/06 02:25:26;;;;;;;2.40;0.80;;;7.00;99.90;;;;;;2086685;28;20228;-74
2023/11/06 02:26:27;;;;;;;4.50;0.97;;;7.00;99.90;;;;;;2089579;28;20312;-73
2023/11/06 02:27:28;;;;;;;2.67;1.00;;;7.00;99.90;;;;;;2079754;28;20267;-73
2023/11/06 02:28:29;;;;;;;2.60;0.80;;;7.10;99.90;;;;;;2081501;28;20256;-74
2023/11/06 02:29:29;;;;;;;1.50;0.60;;;7.10;99.90;;;;;;2081500;28;20232;-74
2023/11/06 02:30:31;;;;;;;1.73;0.50;;;7.00;99.90;;;;;;2082316;28;20221;-74
2023/11/06 02:31:31;;;;;;;2.22;0.70;;;6.90;99.90;;;;;;2081677;28;20363;-73
2023/11/06 02:32:32;;;;;;;1.10;0.60;;;6.90;99.90;;;;;;2095797;28;20231;-73
2023/11/06 02:33:32;;;;;;;4.23;0.63;;;6.80;99.90;;;;;;2088150;28;20336;-74
2023/11/06 02:34:37;;;;;;;1.40;0.57;;;6.90;99.90;;;;;;2083735;28;20233;-73
2023/11/06 02:35:38;;;;;;;3.15;0.60;;;6.90;99.90;;;;;;2082497;28;20236;-73
2023/11/06 02:36:40;;;;;;;1.47;0.50;;;6.90;99.90;;;;;;2082268;28;20278;-74
2023/11/06 02:37:42;;;;;;;1.67;0.70;;;6.90;99.90;;;;;;2089844;28;20727;-73
2023/11/06 02:38:43;;;;;;;1.02;0.57;;;6.90;99.90;;;;;;2092943;28;20713;-73
2023/11/06 02:39:43;;;;;;;0.93;0.60;;;6.90;99.90;;;;;;2086622;28;20227;-73
2023/11/06 02:40:44;;;;;;;1.73;0.80;;;6.90;99.90;;;;;;2093488;28;20743;-73
2023/11/06 02:41:45;;;;;;;1.40;0.73;;;6.90;99.90;;;;;;2087092;28;20242;-73
2023/11/06 02:42:45;;;;;;;1.43;0.50;;;6.90;99.90;;;;;;2086750;28;20228;-73
2023/11/06 02:43:46;;;;;;;0.83;0.60;;;7.00;99.90;;;;;;2090639;28;20284;-74
2023/11/06 02:44:47;;;;;;;0.70;0.60;;;6.90;99.90;;;;;;2089325;28;20608;-75
2023/11/06 02:45:47;;;;;;;1.43;0.57;;;6.80;99.90;;;;;;2091497;28;20307;-73
2023/11/06 02:46:48;;;;;;;1.63;0.70;;;6.70;99.90;;;;;;2095752;28;20235;-73
2023/11/06 02:47:49;;;;;;;0.60;0.50;;;6.70;99.90;;;;;;2087039;28;20259;-73
2023/11/06 02:48:50;;;;;;;3.13;0.80;;;6.60;99.90;;;;;;2094977;28;20604;-72
2023/11/06 02:49:51;;;;;;;1.60;0.70;;;6.60;99.90;;;;;;2095106;28;20234;-73
2023/11/06 02:50:52;;;;;;;1.33;0.60;;;6.60;99.90;;;;;;2086763;28;20228;-73
2023/11/06 02:51:54;;;;;;;1.55;0.60;;;6.70;99.90;;;;;;2092846;28;20227;-73
2023/11/06 02:52:55;;;;;;;0.70;0.68;;;6.70;99.90;;;;;;2091095;28;20308;-73
2023/11/06 02:53:56;;;;;;;1.27;0.68;;;6.70;99.90;;;;;;2091713;28;20595;-74
2023/11/06 02:54:57;;;;;;;1.17;0.60;;;6.60;99.90;;;;;;2089847;28;20235;-73
2023/11/06 02:55:57;;;;;;;2.93;0.60;;;6.60;99.90;;;;;;2091240;28;20241;-73
2023/11/06 02:56:58;;;;;;;1.53;0.50;;;6.50;99.90;;;;;;2093881;28;20222;-73
2023/11/06 02:58:00;;;;;;;3.30;1.33;;;6.50;99.90;;;;;;2093265;28;20254;-73
2023/11/06 02:59:04;;;;;;;1.40;0.60;;;6.50;99.90;;;;;;2089979;28;20870;-73
2023/11/06 03:00:06;;;;;;;1.02;0.60;;;6.50;99.90;;;;;;2089927;28;20180;-74
2023/11/06 03:01:07;;;;;;;3.33;0.50;;;6.50;99.90;;;;;;2096577;28;20196;-73
2023/11/06 03:02:08;;;;;;;3.87;0.60;;;6.50;99.90;;;;;;2102097;28;20179;-73
2023/11/06 03:03:08;;;;;;;0.80;0.73;;;6.50;99.90;;;;;;2095503;28;20187;-73
2023/11/06 03:04:13;;;;;;;7.63;0.70;;;6.50;99.90;;;;;;2094999;28;20211;-73
2023/11/06 03:05:16;;;;;;;0.40;0.40;;;6.50;99.90;;;;;;2092912;28;20183;-73
2023/11/06 03:06:17;;;;;;;2.10;0.98;;;6.60;99.90;;;;;;2089630;28;20330;-73
2023/11/06 03:07:18;;;;;;;0.90;0.73;;;6.60;99.90;;;;;;2099257;28;20198;-73
2023/11/06 03:08:18;;;;;;;0.60;0.40;;;6.60;99.90;;;;;;2092115;28;20183;-73
2023/11/06 03:09:19;;;;;;;1.07;0.50;;;6.60;99.90;;;;;;2088110;28;20227;-73
2023/11/06 03:10:20;;;;;;;2.43;0.60;;;6.50;99.90;;;;;;2088301;28;20231;-73
2023/11/06 03:11:21;;;;;;;2.80;0.60;;;6.60;99.90;;;;;;2090890;28;23816;-73
2023/11/06 03:12:22;;;;;;;0.40;0.40;;;6.60;99.90;;;;;;2097513;28;20235;-73
2023/11/06 03:13:23;;;;;;;0.87;0.57;;;6.60;99.90;;;;;;2088692;28;20319;-73
2023/11/06 03:14:23;;;;;;;1.80;0.70;;;6.70;99.90;;;;;;2088775;28;20232;-73
2023/11/06 03:15:24;;;;;;;1.40;0.70;;;6.60;99.90;;;;;;2088761;28;20286;-73
2023/11/06 03:16:25;;;;;;;2.13;1.00;;;6.60;99.90;;;;;;2090801;28;20243;-73
2023/11/06 03:17:25;;;;;;;0.50;0.40;;;6.60;99.90;;;;;;2094111;28;20630;-74
2023/11/06 03:18:26;;;;;;;0.87;0.60;;;6.60;99.90;;;;;;2097329;28;20318;-73
2023/11/06 03:19:26;;;;;;;0.67;0.57;;;6.60;99.90;;;;;;2090652;28;20354;-73
2023/11/06 03:20:27;;;;;;;0.73;0.60;;;6.60;99.90;;;;;;2089980;28;20256;-73
2023/11/06 03:21:28;;;;;;;0.87;0.63;;;6.60;99.90;;;;;;2097235;28;20235;-73
2023/11/06 03:22:28;;;;;;;3.50;0.67;;;6.60;99.90;;;;;;2089062;28;20708;-73
2023/11/06 03:23:30;;;;;;;1.40;0.63;;;6.60;99.90;;;;;;2091695;28;20240;-72
2023/11/06 03:24:30;;;;;;;1.63;0.50;;;6.60;99.90;;;;;;2093963;28;20227;-72
2023/11/06 03:25:31;;;;;;;3.03;0.80;;;6.50;99.90;;;;;;2093204;28;20643;-73
2023/11/06 03:26:32;;;;;;;1.43;0.60;;;6.60;99.90;;;;;;2093371;28;20369;-72
2023/11/06 03:27:33;;;;;;;0.40;0.40;;;6.50;99.90;;;;;;2092355;28;20820;-72
2023/11/06 03:28:34;;;;;;;2.53;0.70;;;6.50;99.90;;;;;;2094173;28;20234;-72
2023/11/06 03:29:34;;;;;;;1.95;0.57;;;6.50;99.90;;;;;;2095518;28;20731;-73
2023/11/06 03:30:35;;;;;;;0.43;0.40;;;6.40;99.90;;;;;;2094567;28;20255;-73
2023/11/06 03:31:36;;;;;;;1.23;0.60;;;6.50;99.90;;;;;;2094944;28;20265;-73
2023/11/06 03:32:36;;;;;;;1.23;0.60;;;6.40;99.90;;;;;;2091159;28;20456;-73
2023/11/06 03:33:37;;;;;;;0.67;0.60;;;6.50;99.90;;;;;;2090801;28;20720;-73
2023/11/06 03:34:37;;;;;;;1.03;0.57;;;6.50;99.90;;;;;;2089982;28;20232;-73
2023/11/06 03:35:38;;;;;;;0.90;0.67;;;6.50;99.90;;;;;;2096573;28;20223;-73
2023/11/06 03:36:42;;;;;;;1.23;0.60;;;6.50;99.90;;;;;;2097474;28;20674;-72
2023/11/06 03:37:43;;;;;;;1.95;0.70;;;6.40;99.90;;;;;;2088382;28;20319;-72
2023/11/06 03:38:44;;;;;;;1.23;0.70;;;6.40;99.90;;;;;;2090060;28;20259;-72
2023/11/06 03:39:44;;;;;;;1.10;0.63;;;6.40;99.90;;;;;;2088600;28;20712;-73
2023/11/06 03:40:45;;;;;;;0.40;0.40;;;6.40;99.90;;;;;;2091023;28;20592;-73
2023/11/06 03:41:46;;;;;;;0.57;0.40;;;6.40;99.90;;;;;;2092120;28;20227;-72
2023/11/06 03:42:46;;;;;;;0.70;0.50;;;6.50;99.90;;;;;;2092143;28;20220;-73
2023/11/06 03:43:51;;;;;;;1.47;0.50;;;6.60;99.90;;;;;;2089838;28;20258;-72
2023/11/06 03:44:52;;;;;;;1.95;0.60;;;6.60;99.90;;;;;;2090908;28;20616;-73
2023/11/06 03:45:53;;;;;;;0.53;0.40;;;6.60;99.90;;;;;;2094811;28;20261;-72
2023/11/06 03:46:53;;;;;;;1.03;0.50;;;6.60;99.90;;;;;;2091412;28;20227;-72
2023/11/06 03:47:54;;;;;;;0.57;0.43;;;6.60;99.90;;;;;;2094651;28;20308;-72
2023/11/06 03:48:55;;;;;;;1.87;0.60;;;6.50;99.90;;;;;;2090716;28;20308;-73
2023/11/06 03:49:55;;;;;;;0.83;0.57;;;6.50;99.90;;;;;;2090343;28;20239;-73
2023/11/06 03:50:56;;;;;;;4.53;0.60;;;6.50;99.90;;;;;;2092654;28;20231;-73
2023/11/06 03:51:56;;;;;;;2.17;0.60;;;6.60;99.90;;;;;;2092422;28;20231;-73
2023/11/06 03:52:57;;;;;;;0.67;0.40;;;6.70;99.90;;;;;;2092044;28;20693;-73
2023/11/06 03:53:57;;;;;;;2.67;0.80;;;6.70;99.90;;;;;;2091263;28;20240;-72
2023/11/06 03:54:58;;;;;;;0.80;0.60;;;6.70;99.90;;;;;;2095095;28;20255;-72
2023/11/06 03:55:59;;;;;;;0.60;0.50;;;6.70;99.90;;;;;;2086678;28;20259;-72
2023/11/06 03:56:59;;;;;;;0.97;0.60;;;6.60;99.90;;;;;;2086484;28;20314;-73
2023/11/06 03:58:00;;;;;;;2.30;0.53;;;6.60;99.90;;;;;;2087160;28;20248;-74
2023/11/06 03:59:00;;;;;;;0.50;0.50;;;6.50;99.90;;;;;;2093747;28;20265;-73
2023/11/06 04:00:01;;;;;;;1.93;0.73;;;6.60;99.90;;;;;;2092136;28;20187;-73
2023/11/06 04:01:03;;;;;;;0.83;0.60;;;6.60;99.90;;;;;;2086965;28;20195;-73
2023/11/06 04:02:05;;;;;;;0.90;0.50;;;6.50;99.90;;;;;;2087696;28;20187;-73
2023/11/06 04:03:05;;;;;;;2.15;0.73;;;6.60;99.90;;;;;;2092829;28;20191;-73
2023/11/06 04:04:06;;;;;;;1.27;0.60;;;6.60;99.90;;;;;;2084443;28;20195;-73
2023/11/06 04:05:08;;;;;;;1.17;0.60;;;6.60;99.90;;;;;;2092467;28;20864;-73
2023/11/06 04:06:08;;;;;;;2.13;0.60;;;6.70;99.90;;;;;;2089618;28;20633;-73
2023/11/06 04:07:10;;;;;;;3.27;0.60;;;6.60;99.90;;;;;;2089858;28;20188;-73
2023/11/06 04:08:11;;;;;;;0.88;0.60;;;6.70;99.90;;;;;;2089276;28;20302;-73
2023/11/06 04:09:12;;;;;;;1.50;0.60;;;6.70;99.90;;;;;;2088545;28;20727;-73
2023/11/06 04:10:15;;;;;;;6.68;0.77;;;6.60;99.90;;;;;;2100849;28;20175;-73
2023/11/06 04:11:15;;;;;;;2.88;1.02;;;6.60;99.90;;;;;;2094470;28;20225;-73
2023/11/06 04:12:16;;;;;;;2.47;0.77;;;6.60;99.90;;;;;;2094774;28;20775;-72
2023/11/06 04:13:16;;;;;;;1.17;0.60;;;6.70;99.90;;;;;;2092841;28;20179;-73
2023/11/06 04:14:17;;;;;;;4.33;0.97;;;6.70;99.90;;;;;;2089812;28;20569;-72
2023/11/06 04:15:18;;;;;;;1.87;0.60;;;6.70;99.90;;;;;;2090857;28;20660;-72
2023/11/06 04:16:18;;;;;;;4.33;0.90;;;6.60;99.90;;;;;;2090475;28;20207;-72
2023/11/06 04:17:19;;;;;;;3.93;1.00;;;6.60;99.90;;;;;;2091210;28;20776;-73
2023/11/06 04:18:20;;;;;;;1.53;0.60;;;6.60;99.90;;;;;;2090587;28;20222;-73
2023/11/06 04:19:20;;;;;;;3.43;0.73;;;6.60;99.90;;;;;;2087893;28;20277;-73
2023/11/06 04:20:21;;;;;;;2.43;0.77;;;6.70;99.90;;;;;;2089396;28;20492;-73
2023/11/06 04:21:22;;;;;;;1.53;0.70;;;6.70;99.90;;;;;;2088329;28;20374;-73
2023/11/06 04:22:23;;;;;;;2.93;0.90;;;6.70;99.90;;;;;;2089213;28;20235;-73
2023/11/06 04:23:24;;;;;;;3.03;1.30;;;6.70;99.90;;;;;;2096036;28;20223;-73
2023/11/06 04:24:24;;;;;;;0.77;0.70;;;6.60;99.90;;;;;;2089182;28;20248;-73
2023/11/06 04:25:25;;;;;;;2.97;0.70;;;6.70;99.90;;;;;;2091465;28;20224;-73
2023/11/06 04:26:25;;;;;;;1.73;0.80;;;6.80;99.90;;;;;;2091332;28;20323;-74
2023/11/06 04:27:26;;;;;;;0.87;0.73;;;6.70;99.90;;;;;;2092438;28;20335;-73
2023/11/06 04:28:27;;;;;;;2.13;0.67;;;6.70;99.90;;;;;;2093478;28;20227;-73
2023/11/06 04:29:27;;;;;;;3.07;0.90;;;6.80;99.90;;;;;;2092152;28;20255;-73
2023/11/06 04:30:28;;;;;;;2.87;0.90;;;6.80;99.90;;;;;;2091355;28;20720;-73
2023/11/06 04:31:28;;;;;;;1.63;0.60;;;6.80;99.90;;;;;;2090469;28;20649;-74
2023/11/06 04:32:29;;;;;;;2.10;0.80;;;6.70;99.90;;;;;;2090552;28;20232;-74
2023/11/06 04:33:30;;;;;;;2.00;1.20;;;6.70;99.90;;;;;;2093981;28;20223;-74
2023/11/06 04:34:31;;;;;;;3.47;0.90;;;6.80;99.90;;;;;;2094451;28;20665;-74
2023/11/06 04:35:31;;;;;;;1.67;0.67;;;6.90;99.90;;;;;;2094487;28;20592;-75
2023/11/06 04:36:32;;;;;;;1.60;0.57;;;6.90;99.90;;;;;;2094365;28;20369;-74
2023/11/06 04:37:34;;;;;;;3.20;0.73;;;6.90;99.90;;;;;;2093282;28;20337;-74
2023/11/06 04:38:34;;;;;;;0.70;0.55;;;6.90;99.90;;;;;;2093284;28;20235;-75
2023/11/06 04:39:35;;;;;;;1.63;0.70;;;6.90;99.90;;;;;;2092735;28;20693;-74
2023/11/06 04:40:35;;;;;;;1.13;0.60;;;6.80;99.90;;;;;;2087853;28;20231;-74
2023/11/06 04:41:38;;;;;;;1.40;0.63;;;6.80;99.90;;;;;;2091926;28;20288;-74
2023/11/06 04:42:40;;;;;;;1.10;0.70;;;6.80;99.90;;;;;;2090828;28;20266;-74
2023/11/06 04:43:41;;;;;;;2.35;0.85;;;6.80;99.90;;;;;;2090771;28;20255;-74
2023/11/06 04:44:41;;;;;;;0.97;0.60;;;6.70;99.90;;;;;;2094580;28;20231;-74
2023/11/06 04:45:42;;;;;;;1.67;0.90;;;6.70;99.90;;;;;;2093239;28;20227;-74
2023/11/06 04:46:42;;;;;;;1.03;0.70;;;6.70;99.90;;;;;;2090284;28;20346;-73
2023/11/06 04:47:43;;;;;;;3.20;0.90;;;6.70;99.90;;;;;;2091036;28;20243;-74
2023/11/06 04:48:43;;;;;;;1.77;1.10;;;6.60;99.90;;;;;;2092534;28;20278;-74
2023/11/06 04:49:44;;;;;;;2.88;0.80;;;6.70;99.90;;;;;;2093078;28;20320;-74
2023/11/06 04:50:45;;;;;;;3.20;0.80;;;6.60;99.90;;;;;;2092671;28;20342;-74
2023/11/06 04:51:46;;;;;;;1.63;0.70;;;6.60;99.90;;;;;;2092973;28;20231;-75
2023/11/06 04:52:47;;;;;;;1.97;0.80;;;6.60;99.90;;;;;;2091751;28;20234;-75
2023/11/06 04:53:47;;;;;;;2.43;0.70;;;6.60;99.90;;;;;;2092250;28;20764;-74
2023/11/06 04:54:48;;;;;;;2.70;0.77;;;6.60;99.90;;;;;;2089757;28;20318;-76
2023/11/06 04:55:48;;;;;;;4.20;1.53;;;6.60;99.90;;;;;;2091199;28;20316;-75
2023/11/06 04:56:49;;;;;;;3.73;0.93;;;6.60;99.90;;;;;;2093831;28;20239;-74
2023/11/06 04:57:50;;;;;;;1.97;0.77;;;6.50;99.90;;;;;;2091566;28;20314;-75
2023/11/06 04:58:50;;;;;;;3.50;1.13;;;6.50;99.90;;;;;;2093401;28;20241;-74
2023/11/06 04:59:51;;;;;;;3.03;1.33;;;6.50;99.90;;;;;;2096683;28;20228;-75
2023/11/06 05:00:52;;;;;;;1.17;0.77;;;6.50;99.90;;;;;;2087880;28;20815;-74
2023/11/06 05:01:52;;;;;;;1.77;0.93;;;6.40;99.90;;;;;;2093901;28;20257;-73
2023/11/06 05:02:53;;;;;;;3.63;0.83;;;6.50;99.90;;;;;;2093585;28;20682;-74
2023/11/06 05:03:53;;;;;;;2.90;0.70;;;6.50;99.90;;;;;;2092917;28;20231;-73
2023/11/06 05:04:54;;;;;;;1.27;0.90;;;6.50;99.90;;;;;;2095838;28;20227;-73
2023/11/06 05:05:55;;;;;;;2.30;1.00;;;6.50;99.90;;;;;;2094612;28;20653;-74
2023/11/06 05:06:57;;;;;;;1.47;0.90;;;6.50;99.90;;;;;;2090471;28;20722;-73
2023/11/06 05:07:58;;;;;;;2.88;0.90;;;6.50;99.90;;;;;;2096592;28;20257;-73
2023/11/06 05:09:00;;;;;;;17.00;15.40;;;6.50;99.90;;;;;;2087252;28;20245;-74
2023/11/06 05:10:05;;;;;;;2.65;2.45;;;6.60;99.90;;;;;;2087611;28;20694;-74
2023/11/06 05:11:05;;;;;;;2.03;0.95;;;6.70;99.90;;;;;;2092513;28;20616;-74
2023/11/06 05:12:06;;;;;;;1.40;0.80;;;6.80;99.90;;;;;;2094843;28;20294;-73
2023/11/06 05:13:07;;;;;;;3.03;0.70;;;6.80;99.90;;;;;;2091469;28;20632;-73
2023/11/06 05:14:07;;;;;;;1.10;0.60;;;6.90;99.90;;;;;;2081361;28;20212;-74
2023/11/06 05:15:09;;;;;;;4.60;0.83;;;6.90;99.90;;;;;;2083796;28;20290;-74
2023/11/06 05:16:10;;;;;;;1.45;0.70;;;7.00;99.90;;;;;;2079297;28;20226;-74
2023/11/06 05:17:10;;;;;;;2.27;1.10;;;7.00;99.90;;;;;;2079782;28;20233;-73
2023/11/06 05:18:11;;;;;;;2.93;1.10;;;7.00;99.90;;;;;;2082600;28;20188;-74
2023/11/06 05:19:12;;;;;;;0.87;0.70;;;7.00;99.90;;;;;;2081438;28;20193;-73
2023/11/06 05:20:14;;;;;;;2.42;0.73;;;6.90;99.90;;;;;;2083956;28;20561;-73
2023/11/06 05:21:23;;;;;;;3.40;1.40;;;6.90;99.90;;;;;;2087229;28;20245;-74
2023/11/06 05:22:24;;;;;;;2.72;0.70;;;6.80;99.90;;;;;;2096245;28;20284;-73